createdAt,value
2018-03-16T00:01:57.217Z,12.20
2018-03-16T00:04:24.702Z,12.20
2018-03-16T00:06:52.137Z,12.20
2018-03-16T00:09:20.357Z,12.20
2018-03-16T00:11:47.772Z,12.20
2018-03-16T00:14:15.968Z,12.20
2018-03-16T00:16:43.397Z,12.20
2018-03-16T00:19:10.828Z,12.10
2018-03-16T00:21:38.316Z,12.00
2018-03-16T00:24:05.745Z,12.20
2018-03-16T00:26:33.201Z,12.20
2018-03-16T00:29:00.633Z,12.20
2018-03-16T00:31:28.150Z,12.10
2018-03-16T00:33:55.573Z,12.10
2018-03-16T00:36:23.014Z,12.20
2018-03-16T00:38:50.456Z,12.10
2018-03-16T00:41:17.888Z,12.00
2018-03-16T00:43:47.015Z,12.00
2018-03-16T00:46:14.454Z,12.00
2018-03-16T00:48:41.921Z,12.00
2018-03-16T00:51:09.340Z,12.00
2018-03-16T00:53:37.549Z,12.10
2018-03-16T00:56:04.990Z,12.00
2018-03-16T00:58:33.196Z,11.90
2018-03-16T01:01:00.630Z,11.90
2018-03-16T01:03:28.089Z,12.00
2018-03-16T01:05:56.265Z,12.00
2018-03-16T01:08:23.746Z,12.00
2018-03-16T01:10:51.174Z,11.90
2018-03-16T01:13:19.382Z,12.00
2018-03-16T01:15:49.134Z,12.00
2018-03-16T01:18:16.685Z,11.90
2018-03-16T01:20:46.900Z,11.90
2018-03-16T01:23:14.336Z,11.80
2018-03-16T01:25:41.780Z,11.80
2018-03-16T01:28:09.210Z,11.80
2018-03-16T01:30:37.421Z,11.80
2018-03-16T01:33:04.851Z,11.80
2018-03-16T01:35:32.294Z,11.90
2018-03-16T01:38:00.513Z,11.80
2018-03-16T01:40:27.949Z,11.70
2018-03-16T01:42:55.386Z,11.70
2018-03-16T01:45:23.593Z,11.60
2018-03-16T01:47:51.027Z,11.60
2018-03-16T01:50:18.509Z,11.70
2018-03-16T01:52:58.582Z,11.70
2018-03-16T01:55:26.025Z,11.50
2018-03-16T01:57:53.454Z,11.30
2018-03-16T02:00:20.884Z,11.30
2018-03-16T02:02:48.344Z,11.30
2018-03-16T02:05:15.795Z,11.30
2018-03-16T02:07:43.230Z,11.50
2018-03-16T02:10:10.679Z,11.30
2018-03-16T02:12:38.106Z,11.40
2018-03-16T02:15:05.555Z,11.30
2018-03-16T02:17:33.763Z,11.30
2018-03-16T02:20:01.232Z,11.30
2018-03-16T02:22:29.157Z,11.20
2018-03-16T02:24:56.594Z,11.30
2018-03-16T02:27:24.034Z,11.20
2018-03-16T02:29:51.494Z,11.40
2018-03-16T02:32:18.946Z,11.40
2018-03-16T02:34:46.801Z,11.30
2018-03-16T02:37:14.242Z,11.30
2018-03-16T02:39:41.690Z,11.40
2018-03-16T02:42:09.138Z,11.30
2018-03-16T02:44:36.573Z,11.30
2018-03-16T02:47:04.001Z,11.40
2018-03-16T02:49:31.451Z,11.40
2018-03-16T02:51:58.905Z,11.30
2018-03-16T02:54:26.357Z,11.20
2018-03-16T02:56:53.765Z,11.40
2018-03-16T02:59:21.985Z,11.40
2018-03-16T03:01:49.447Z,11.40
2018-03-16T03:04:16.892Z,11.50
2018-03-16T03:06:44.335Z,11.50
2018-03-16T03:09:12.348Z,11.40
2018-03-16T03:11:39.777Z,11.50
2018-03-16T03:14:07.221Z,11.40
2018-03-16T03:16:34.649Z,11.50
2018-03-16T03:19:02.865Z,11.30
2018-03-16T03:21:30.316Z,11.30
2018-03-16T03:23:57.770Z,11.50
2018-03-16T03:26:25.324Z,11.40
2018-03-16T03:28:52.757Z,11.40
2018-03-16T03:31:20.958Z,11.50
2018-03-16T03:33:48.407Z,11.40
2018-03-16T03:36:15.854Z,11.50
2018-03-16T03:38:44.057Z,11.40
2018-03-16T03:41:11.481Z,11.40
2018-03-16T03:43:39.697Z,11.40
2018-03-16T03:46:07.135Z,11.40
2018-03-16T03:48:34.573Z,11.40
2018-03-16T03:51:02.772Z,11.40
2018-03-16T03:53:30.203Z,11.30
2018-03-16T03:55:58.404Z,11.30
2018-03-16T03:58:25.833Z,11.30
2018-03-16T04:00:54.040Z,11.10
2018-03-16T04:03:21.477Z,11.10
2018-03-16T04:05:48.923Z,11.20
2018-03-16T04:08:17.116Z,11.20
2018-03-16T04:10:44.552Z,11.20
2018-03-16T04:13:12.749Z,11.10
2018-03-16T04:15:40.222Z,11.10
2018-03-16T04:18:07.642Z,11.20
2018-03-16T04:20:35.834Z,11.20
2018-03-16T04:23:03.277Z,11.20
2018-03-16T04:25:31.486Z,10.90
2018-03-16T04:27:58.912Z,10.90
2018-03-16T04:30:27.113Z,10.90
2018-03-16T04:32:54.544Z,10.90
2018-03-16T04:35:22.750Z,11.10
2018-03-16T04:37:50.213Z,11.10
2018-03-16T04:40:18.132Z,10.90
2018-03-16T04:42:45.564Z,11.10
2018-03-16T04:45:13.049Z,11.10
2018-03-16T04:47:40.483Z,11.10
2018-03-16T04:50:07.914Z,11.00
2018-03-16T04:52:35.361Z,11.00
2018-03-16T04:55:02.788Z,11.00
2018-03-16T04:57:30.997Z,10.70
2018-03-16T04:59:58.437Z,10.70
2018-03-16T05:02:25.875Z,10.70
2018-03-16T05:04:54.092Z,10.70
2018-03-16T05:07:21.516Z,10.70
2018-03-16T05:09:50.127Z,10.70
2018-03-16T05:12:17.622Z,10.40
2018-03-16T05:14:45.018Z,10.60
2018-03-16T05:17:13.205Z,10.80
2018-03-16T05:19:40.639Z,10.80
2018-03-16T05:22:08.854Z,10.90
2018-03-16T05:24:36.298Z,10.80
2018-03-16T05:27:03.742Z,10.80
2018-03-16T05:29:31.184Z,10.80
2018-03-16T05:31:59.714Z,10.80
2018-03-16T05:34:27.236Z,10.50
2018-03-16T05:36:55.446Z,10.40
2018-03-16T05:39:22.883Z,10.40
2018-03-16T05:41:50.310Z,10.50
2018-03-16T05:44:18.524Z,10.40
2018-03-16T05:46:45.945Z,10.40
2018-03-16T05:49:14.189Z,10.50
2018-03-16T05:51:41.608Z,10.50
2018-03-16T05:54:09.061Z,10.50
2018-03-16T05:56:36.503Z,10.40
2018-03-16T05:59:04.699Z,10.60
2018-03-16T06:01:32.138Z,10.60
2018-03-16T06:04:00.341Z,10.40
2018-03-16T06:06:27.777Z,10.40
2018-03-16T06:08:55.395Z,10.70
2018-03-16T06:11:22.828Z,10.80
2018-03-16T06:13:50.300Z,10.50
2018-03-16T06:16:17.724Z,10.70
2018-03-16T06:18:45.163Z,10.60
2018-03-16T06:21:13.393Z,10.30
2018-03-16T06:23:40.832Z,10.30
2018-03-16T06:26:08.284Z,10.30
2018-03-16T06:28:35.758Z,10.30
2018-03-16T06:31:03.180Z,10.40
2018-03-16T06:33:30.622Z,10.50
2018-03-16T06:35:58.844Z,10.60
2018-03-16T06:38:26.269Z,10.60
2018-03-16T06:40:53.717Z,10.40
2018-03-16T06:43:21.161Z,10.10
2018-03-16T06:45:49.385Z,10.10
2018-03-16T06:48:16.817Z,10.10
2018-03-16T06:50:44.316Z,10.10
2018-03-16T06:53:11.745Z,10.20
2018-03-16T06:55:39.185Z,10.20
2018-03-16T06:58:06.638Z,10.30
2018-03-16T07:00:34.838Z,10.20
2018-03-16T07:03:02.277Z,10.10
2018-03-16T07:05:29.728Z,10.30
2018-03-16T07:07:57.157Z,10.30
2018-03-16T07:10:24.604Z,10.30
2018-03-16T07:12:52.033Z,10.30
2018-03-16T07:15:35.136Z,10.20
2018-03-16T07:18:02.615Z,10.20
2018-03-16T07:20:30.777Z,10.00
2018-03-16T07:22:58.230Z,10.00
2018-03-16T07:25:25.664Z,9.90
2018-03-16T07:27:53.866Z,9.90
2018-03-16T07:30:21.288Z,9.90
2018-03-16T07:32:49.543Z,10.20
2018-03-16T07:35:16.944Z,10.20
2018-03-16T07:37:44.395Z,10.20
2018-03-16T07:40:12.352Z,9.90
2018-03-16T07:42:41.355Z,9.90
2018-03-16T07:45:08.802Z,9.80
2018-03-16T07:47:37.023Z,10.00
2018-03-16T07:50:04.456Z,10.00
2018-03-16T07:52:31.932Z,10.00
2018-03-16T07:54:59.376Z,10.00
2018-03-16T07:57:26.808Z,10.00
2018-03-16T07:59:55.003Z,9.90
2018-03-16T08:02:22.468Z,9.90
2018-03-16T08:04:49.921Z,9.80
2018-03-16T08:07:17.342Z,9.80
2018-03-16T08:09:44.787Z,10.00
2018-03-16T08:12:12.218Z,10.00
2018-03-16T08:14:39.655Z,10.20
2018-03-16T08:17:07.097Z,10.40
2018-03-16T08:19:34.533Z,10.30
2018-03-16T08:22:02.735Z,10.30
2018-03-16T08:24:30.179Z,10.30
2018-03-16T08:26:58.360Z,10.50
2018-03-16T08:29:25.784Z,10.50
2018-03-16T08:31:53.229Z,10.50
2018-03-16T08:34:20.666Z,10.50
2018-03-16T08:36:48.135Z,10.40
2018-03-16T08:39:15.567Z,10.50
2018-03-16T08:41:43.008Z,10.30
2018-03-16T08:44:10.677Z,10.30
2018-03-16T08:46:38.866Z,10.10
2018-03-16T08:49:06.284Z,10.10
2018-03-16T08:51:34.495Z,10.10
2018-03-16T08:54:01.924Z,10.10
2018-03-16T08:56:29.396Z,10.40
2018-03-16T08:58:56.823Z,10.40
2018-03-16T09:01:24.261Z,10.50
2018-03-16T09:03:51.706Z,10.50
2018-03-16T09:06:19.158Z,10.50
2018-03-16T09:08:47.516Z,10.60
2018-03-16T09:11:14.957Z,10.60
2018-03-16T09:13:43.177Z,10.50
2018-03-16T09:16:10.609Z,10.50
2018-03-16T09:18:38.049Z,10.70
2018-03-16T09:21:05.513Z,10.90
2018-03-16T09:23:32.932Z,11.10
2018-03-16T09:26:00.387Z,11.00
2018-03-16T09:28:27.817Z,11.00
2018-03-16T09:30:55.253Z,10.80
2018-03-16T09:33:22.703Z,10.90
2018-03-16T09:35:50.131Z,11.00
2018-03-16T09:38:18.352Z,11.30
2018-03-16T09:40:45.789Z,11.30
2018-03-16T09:43:13.251Z,10.90
2018-03-16T09:45:40.672Z,10.70
2018-03-16T09:48:08.881Z,11.20
2018-03-16T09:50:36.368Z,11.20
2018-03-16T09:53:03.804Z,11.00
2018-03-16T09:55:46.818Z,11.00
2018-03-16T09:58:14.270Z,11.30
2018-03-16T10:00:41.724Z,11.20
2018-03-16T10:03:09.163Z,11.10
2018-03-16T10:05:37.364Z,11.30
2018-03-16T10:08:04.810Z,11.30
2018-03-16T10:10:32.243Z,11.70
2018-03-16T10:13:00.567Z,11.70
2018-03-16T10:15:27.990Z,11.70
2018-03-16T10:17:56.200Z,11.80
2018-03-16T10:20:23.639Z,11.80
2018-03-16T10:22:51.070Z,12.00
2018-03-16T10:25:18.498Z,12.20
2018-03-16T10:27:45.926Z,12.30
2018-03-16T10:30:13.396Z,12.30
2018-03-16T10:32:40.822Z,12.00
2018-03-16T10:35:08.264Z,12.00
2018-03-16T10:37:36.472Z,12.40
2018-03-16T10:40:04.797Z,12.40
2018-03-16T10:42:32.228Z,12.40
2018-03-16T10:44:59.685Z,12.60
2018-03-16T10:47:27.134Z,12.90
2018-03-16T10:49:54.589Z,12.80
2018-03-16T10:52:22.013Z,12.90
2018-03-16T10:54:49.445Z,12.60
2018-03-16T10:57:16.886Z,12.50
2018-03-16T10:59:44.332Z,12.40
2018-03-16T11:02:17.590Z,12.40
2018-03-16T11:04:45.025Z,12.40
2018-03-16T11:07:19.380Z,12.20
2018-03-16T11:09:47.717Z,12.50
2018-03-16T11:12:15.167Z,12.60
2018-03-16T11:14:42.615Z,12.50
2018-03-16T11:17:10.069Z,12.50
2018-03-16T11:19:37.509Z,12.60
2018-03-16T11:22:04.980Z,12.50
2018-03-16T11:24:32.398Z,12.10
2018-03-16T11:26:59.836Z,11.80
2018-03-16T11:29:28.048Z,11.50
2018-03-16T11:31:55.511Z,11.50
2018-03-16T11:34:22.983Z,11.40
2018-03-16T11:36:50.417Z,11.40
2018-03-16T11:39:17.872Z,11.30
2018-03-16T11:41:45.288Z,11.30
2018-03-16T11:44:13.526Z,11.60
2018-03-16T11:46:40.985Z,11.60
2018-03-16T11:49:08.461Z,11.70
2018-03-16T11:51:35.865Z,11.60
2018-03-16T11:54:03.309Z,11.40
2018-03-16T11:56:30.776Z,11.00
2018-03-16T11:58:58.249Z,11.10
2018-03-16T12:01:25.706Z,11.00
2018-03-16T12:03:53.112Z,10.90
2018-03-16T12:06:21.318Z,11.70
2018-03-16T12:08:48.926Z,11.70
2018-03-16T12:11:16.368Z,11.80
2018-03-16T12:13:49.574Z,11.50
2018-03-16T12:16:17.042Z,11.60
2018-03-16T12:18:44.487Z,11.30
2018-03-16T12:21:11.936Z,11.20
2018-03-16T12:23:39.368Z,11.10
2018-03-16T12:26:06.801Z,11.40
2018-03-16T12:28:49.522Z,10.90
2018-03-16T12:31:02.466Z,10.90
2018-03-16T12:33:29.900Z,10.90
2018-03-16T12:35:58.106Z,11.30
2018-03-16T12:38:25.545Z,11.20
2018-03-16T12:40:52.981Z,11.50
2018-03-16T12:43:22.085Z,11.50
2018-03-16T12:45:49.520Z,11.50
2018-03-16T12:48:17.733Z,11.80
2018-03-16T12:50:45.181Z,11.80
2018-03-16T12:53:12.611Z,11.80
2018-03-16T12:55:40.905Z,11.20
2018-03-16T12:58:09.155Z,11.00
2018-03-16T13:00:36.591Z,11.00
2018-03-16T13:03:04.037Z,10.90
2018-03-16T13:05:31.468Z,10.90
2018-03-16T13:07:58.913Z,11.10
2018-03-16T13:10:26.344Z,11.10
2018-03-16T13:12:53.784Z,11.20
2018-03-16T13:15:21.232Z,11.40
2018-03-16T13:17:48.688Z,11.20
2018-03-16T13:20:16.123Z,11.20
2018-03-16T13:22:43.568Z,11.20
2018-03-16T13:25:11.003Z,11.00
2018-03-16T13:27:39.207Z,10.70
2018-03-16T13:30:06.632Z,10.70
2018-03-16T13:32:34.855Z,10.20
2018-03-16T13:35:02.329Z,10.20
2018-03-16T13:37:29.737Z,10.20
2018-03-16T13:39:57.177Z,10.20
2018-03-16T13:42:25.380Z,10.40
2018-03-16T13:44:52.848Z,10.30
2018-03-16T13:47:21.037Z,10.90
2018-03-16T13:49:48.467Z,10.90
2018-03-16T13:52:15.893Z,10.90
2018-03-16T13:54:44.106Z,11.30
2018-03-16T13:57:11.528Z,11.30
2018-03-16T13:59:38.969Z,11.10
2018-03-16T14:02:06.425Z,10.50
2018-03-16T14:04:33.861Z,10.60
2018-03-16T14:07:01.298Z,10.50
2018-03-16T14:09:28.753Z,10.20
2018-03-16T14:11:56.174Z,10.20
2018-03-16T14:14:24.389Z,10.60
2018-03-16T14:16:51.838Z,10.50
2018-03-16T14:19:19.277Z,10.70
2018-03-16T14:21:48.420Z,10.50
2018-03-16T14:24:15.875Z,10.50
2018-03-16T14:26:44.081Z,10.10
2018-03-16T14:29:11.513Z,10.10
2018-03-16T14:31:38.968Z,10.20
2018-03-16T14:34:06.394Z,10.10
2018-03-16T14:36:33.842Z,10.20
2018-03-16T14:39:02.056Z,10.10
2018-03-16T14:41:29.496Z,10.00
2018-03-16T14:43:56.945Z,9.90
2018-03-16T14:46:24.385Z,9.90
2018-03-16T14:48:52.585Z,9.40
2018-03-16T14:51:20.037Z,9.40
2018-03-16T14:53:48.254Z,9.50
2018-03-16T14:56:15.684Z,9.50
2018-03-16T14:58:43.137Z,9.80
2018-03-16T15:01:10.564Z,9.50
2018-03-16T15:03:38.753Z,9.10
2018-03-16T15:06:06.178Z,9.10
2018-03-16T15:08:34.526Z,9.20
2018-03-16T15:11:01.965Z,9.10
2018-03-16T15:13:29.403Z,9.20
2018-03-16T15:15:56.825Z,9.30
2018-03-16T15:18:24.247Z,9.20
2018-03-16T15:20:51.669Z,9.20
2018-03-16T15:23:19.115Z,9.40
2018-03-16T15:25:47.326Z,9.10
2018-03-16T15:28:14.765Z,9.10
2018-03-16T15:30:42.197Z,9.00
2018-03-16T15:33:10.395Z,8.90
2018-03-16T15:35:37.838Z,8.90
2018-03-16T15:38:06.050Z,8.60
2018-03-16T15:40:33.485Z,8.50
2018-03-16T15:43:00.936Z,8.60
2018-03-16T15:45:28.404Z,8.60
2018-03-16T15:47:56.589Z,8.70
2018-03-16T15:50:24.022Z,8.70
2018-03-16T15:52:52.222Z,8.80
2018-03-16T15:55:19.665Z,8.70
2018-03-16T15:57:47.113Z,8.80
2018-03-16T16:00:15.316Z,8.70
2018-03-16T16:02:42.744Z,8.70
2018-03-16T16:05:10.937Z,8.70
2018-03-16T16:07:38.373Z,8.70
2018-03-16T16:10:06.559Z,8.70
2018-03-16T16:12:33.982Z,8.60
2018-03-16T16:15:01.501Z,8.50
2018-03-16T16:17:28.864Z,8.50
2018-03-16T16:19:56.379Z,8.60
2018-03-16T16:22:24.639Z,8.50
2018-03-16T16:24:52.016Z,8.50
2018-03-16T16:27:19.576Z,8.40
2018-03-16T16:29:47.008Z,8.10
2018-03-16T16:32:14.809Z,7.90
2018-03-16T16:34:42.238Z,8.00
2018-03-16T16:37:10.440Z,7.80
2018-03-16T16:39:37.871Z,7.80
2018-03-16T16:42:06.106Z,7.80
2018-03-16T16:44:33.542Z,7.80
2018-03-16T16:47:00.995Z,7.80
2018-03-16T16:49:28.419Z,7.60
2018-03-16T16:51:56.626Z,7.30
2018-03-16T16:54:24.098Z,7.30
2018-03-16T16:56:51.531Z,7.40
2018-03-16T16:59:18.966Z,7.50
2018-03-16T17:01:47.177Z,7.50
2018-03-16T17:04:14.619Z,7.40
2018-03-16T17:06:42.038Z,7.30
2018-03-16T17:09:09.484Z,7.40
2018-03-16T17:11:37.009Z,7.40
2018-03-16T17:14:04.441Z,7.30
2018-03-16T17:16:31.890Z,7.10
2018-03-16T17:19:00.107Z,7.10
2018-03-16T17:21:27.528Z,7.00
2018-03-16T17:23:55.750Z,7.10
2018-03-16T17:26:23.165Z,7.10
2018-03-16T17:28:50.597Z,6.90
2018-03-16T17:31:18.041Z,7.10
2018-03-16T17:33:45.489Z,7.20
2018-03-16T17:36:14.610Z,7.10
2018-03-16T17:38:42.037Z,7.10
2018-03-16T17:41:09.441Z,7.20
2018-03-16T17:43:36.876Z,6.80
2018-03-16T17:46:04.300Z,7.10
2018-03-16T17:48:32.529Z,6.80
2018-03-16T17:51:00.724Z,6.70
2018-03-16T17:53:29.109Z,6.70
2018-03-16T17:55:56.555Z,6.80
2018-03-16T17:58:23.986Z,6.70
2018-03-16T18:00:51.418Z,6.80
2018-03-16T18:03:18.855Z,6.90
2018-03-16T18:05:46.274Z,6.70
2018-03-16T18:08:13.719Z,6.40
2018-03-16T18:10:41.160Z,6.50
2018-03-16T18:13:08.638Z,6.50
2018-03-16T18:15:37.139Z,6.70
2018-03-16T18:18:04.621Z,6.70
2018-03-16T18:20:32.071Z,6.90
2018-03-16T18:22:59.508Z,6.70
2018-03-16T18:25:27.696Z,6.80
2018-03-16T18:27:55.173Z,6.80
2018-03-16T18:30:22.602Z,6.70
2018-03-16T18:32:50.046Z,6.50
2018-03-16T18:35:18.248Z,6.50
2018-03-16T18:37:45.706Z,6.50
2018-03-16T18:40:13.166Z,6.50
2018-03-16T18:42:40.607Z,6.40
2018-03-16T18:45:08.064Z,6.40
2018-03-16T18:47:36.264Z,6.30
2018-03-16T18:50:03.686Z,6.20
2018-03-16T18:52:31.901Z,6.50
2018-03-16T18:54:59.345Z,6.50
2018-03-16T18:57:26.785Z,6.40
2018-03-16T18:59:54.977Z,6.30
2018-03-16T19:02:22.445Z,6.20
2018-03-16T19:04:49.882Z,6.50
2018-03-16T19:07:17.314Z,6.40
2018-03-16T19:09:45.511Z,6.10
2018-03-16T19:12:12.941Z,6.00
2018-03-16T19:14:41.128Z,6.40
2018-03-16T19:17:09.351Z,6.50
2018-03-16T19:19:37.444Z,6.50
2018-03-16T19:22:04.907Z,6.40
2018-03-16T19:24:32.337Z,5.90
2018-03-16T19:26:59.796Z,6.00
2018-03-16T19:29:27.223Z,6.30
2018-03-16T19:31:54.661Z,6.50
2018-03-16T19:34:22.869Z,6.20
2018-03-16T19:36:50.303Z,6.20
2018-03-16T19:39:17.740Z,6.20
2018-03-16T19:41:45.928Z,5.80
2018-03-16T19:44:13.370Z,5.80
2018-03-16T19:46:41.587Z,5.80
2018-03-16T19:49:09.010Z,5.80
2018-03-16T19:51:37.224Z,6.10
2018-03-16T19:54:04.679Z,6.00
2018-03-16T19:56:32.105Z,6.10
2018-03-16T19:59:00.321Z,5.80
2018-03-16T20:01:27.745Z,5.80
2018-03-16T20:03:55.342Z,5.80
2018-03-16T20:06:22.777Z,5.90
2018-03-16T20:08:50.258Z,5.80
2018-03-16T20:11:17.702Z,5.60
2018-03-16T20:13:45.137Z,5.40
2018-03-16T20:16:12.581Z,5.70
2018-03-16T20:18:40.785Z,5.90
2018-03-16T20:21:08.209Z,5.90
2018-03-16T20:23:36.394Z,6.00
2018-03-16T20:26:04.638Z,5.90
2018-03-16T20:28:32.079Z,5.90
2018-03-16T20:31:00.349Z,5.90
2018-03-16T20:33:27.781Z,5.60
2018-03-16T20:35:55.225Z,5.60
2018-03-16T20:38:22.658Z,5.60
2018-03-16T20:40:50.891Z,5.30
2018-03-16T20:43:18.337Z,5.30
2018-03-16T20:45:45.761Z,5.40
2018-03-16T20:48:14.049Z,5.60
2018-03-16T20:50:42.254Z,5.70
2018-03-16T20:53:09.791Z,5.70
2018-03-16T20:55:37.273Z,5.50
2018-03-16T20:58:04.739Z,5.40
2018-03-16T21:00:32.211Z,5.40
2018-03-16T21:02:59.653Z,5.50
2018-03-16T21:05:27.106Z,5.20
2018-03-16T21:07:55.679Z,5.20
2018-03-16T21:10:23.107Z,5.20
2018-03-16T21:12:51.327Z,5.20
2018-03-16T21:15:18.751Z,5.10
2018-03-16T21:17:46.248Z,5.20
2018-03-16T21:20:14.411Z,5.30
2018-03-16T21:22:41.846Z,5.30
2018-03-16T21:25:09.278Z,5.30
2018-03-16T21:27:37.496Z,5.20
2018-03-16T21:30:04.929Z,5.10
2018-03-16T21:32:32.378Z,5.40
2018-03-16T21:35:00.565Z,5.60
2018-03-16T21:37:28.021Z,5.60
2018-03-16T21:39:56.225Z,5.60
2018-03-16T21:42:23.643Z,5.60
2018-03-16T21:44:51.072Z,5.80
2018-03-16T21:47:18.514Z,5.90
2018-03-16T21:49:45.950Z,5.70
2018-03-16T21:52:13.433Z,5.50
2018-03-16T21:54:40.865Z,5.70
2018-03-16T21:57:08.320Z,5.60
2018-03-16T21:59:35.778Z,5.60
2018-03-16T22:02:03.238Z,5.40
2018-03-16T22:04:30.683Z,5.60
2018-03-16T22:06:58.101Z,5.70
2018-03-16T22:09:26.324Z,5.50
2018-03-16T22:11:54.722Z,5.40
2018-03-16T22:14:22.178Z,5.70
2018-03-16T22:16:49.625Z,5.70
2018-03-16T22:19:17.090Z,5.50
2018-03-16T22:21:44.574Z,5.40
2018-03-16T22:24:12.039Z,5.50
2018-03-16T22:26:39.467Z,5.40
2018-03-16T22:29:06.892Z,5.20
2018-03-16T22:31:34.335Z,5.00
2018-03-16T22:34:01.795Z,4.90
2018-03-16T22:36:29.295Z,5.10
2018-03-16T22:38:56.731Z,5.30
2018-03-16T22:41:24.162Z,5.10
2018-03-16T22:43:52.395Z,5.10
2018-03-16T22:46:19.796Z,5.10
2018-03-16T22:48:47.252Z,4.70
2018-03-16T22:51:14.701Z,4.70
2018-03-16T22:53:42.914Z,4.40
2018-03-16T22:56:10.368Z,4.40
2018-03-16T22:58:37.802Z,4.50
2018-03-16T23:01:06.000Z,4.70
2018-03-16T23:03:33.438Z,4.60
2018-03-16T23:06:00.907Z,4.60
2018-03-16T23:08:28.373Z,4.60
2018-03-16T23:10:55.836Z,4.70
2018-03-16T23:13:23.260Z,5.00
2018-03-16T23:15:51.477Z,4.80
2018-03-16T23:18:18.949Z,4.80
2018-03-16T23:20:46.365Z,4.90
2018-03-16T23:23:13.810Z,4.60
2018-03-16T23:25:41.269Z,4.70
2018-03-16T23:28:09.486Z,4.50
2018-03-16T23:30:36.961Z,4.40
2018-03-16T23:33:04.392Z,4.40
2018-03-16T23:35:31.839Z,4.50
2018-03-16T23:37:59.311Z,4.60
2018-03-16T23:40:26.747Z,4.50
2018-03-16T23:42:54.185Z,4.20
2018-03-16T23:45:22.377Z,4.60
2018-03-16T23:47:49.802Z,4.60
2018-03-16T23:50:18.010Z,4.50
2018-03-16T23:52:45.434Z,4.50
2018-03-16T23:55:13.661Z,4.40
2018-03-16T23:57:41.081Z,4.40
